Time;durP1;ratioP1;P1;durP2;ratioP2;P2;SDS_P1;SDS_P2;PMS_P1;PMS_P2;Temp;Humidity;BMP_temperature;BMP_pressure;BME280_temperature;BME280_humidity;BME280_pressure;Samples;Min_cycle;Max_cycle;Signal;HPM_P1;HPM_P2
2022/07/25 00:01:24;;;;;;;61.13;55.72;;;;;;;;;;5095815;28;24441;-44
2022/07/25 00:03:49;;;;;;;55.35;50.15;;;;;;;;;;5099499;28;24447;-44
2022/07/25 00:06:14;;;;;;;57.20;51.90;;;;;;;;;;5088489;28;24779;-45
2022/07/25 00:08:39;;;;;;;58.37;53.00;;;;;;;;;;5102750;28;25035;-44
2022/07/25 00:11:04;;;;;;;56.17;50.67;;;;;;;;;;5085071;28;24421;-45
2022/07/25 00:13:30;;;;;;;59.30;53.80;;;;;;;;;;5094875;28;24430;-45
2022/07/25 00:15:55;;;;;;;53.75;48.75;;;;;;;;;;5092054;28;24421;-45
2022/07/25 00:18:20;;;;;;;54.45;49.45;;;;;;;;;;5084566;28;24457;-45
2022/07/25 00:20:45;;;;;;;53.10;48.20;;;;;;;;;;5100357;28;24896;-45
2022/07/25 00:23:10;;;;;;;53.93;49.03;;;;;;;;;;5085577;28;24421;-45
2022/07/25 00:25:36;;;;;;;55.15;50.05;;;;;;;;;;5090452;28;24417;-45
2022/07/25 00:28:01;;;;;;;55.00;49.67;;;;;;;;;;5102408;28;24976;-45
2022/07/25 00:30:26;;;;;;;55.53;50.43;;;;;;;;;;5085204;28;24445;-44
2022/07/25 00:32:51;;;;;;;52.08;47.17;;;;;;;;;;5088975;28;24425;-43
2022/07/25 00:35:16;;;;;;;55.67;50.57;;;;;;;;;;5098176;28;24571;-44
2022/07/25 00:37:41;;;;;;;54.00;49.00;;;;;;;;;;5099465;28;24708;-44
2022/07/25 00:40:07;;;;;;;54.08;49.17;;;;;;;;;;5091694;28;24506;-46
2022/07/25 00:42:32;;;;;;;54.67;49.53;;;;;;;;;;5105916;28;24400;-45
2022/07/25 00:44:58;;;;;;;58.20;52.60;;;;;;;;;;5090703;28;25018;-44
2022/07/25 00:47:24;;;;;;;60.58;54.97;;;;;;;;;;5090697;28;24660;-45
2022/07/25 00:49:49;;;;;;;63.43;57.43;;;;;;;;;;5036533;28;1701666;-44
2022/07/25 00:52:14;;;;;;;65.13;58.93;;;;;;;;;;5096896;28;24438;-45
2022/07/25 00:54:39;;;;;;;68.97;62.67;;;;;;;;;;5088357;28;24854;-45
2022/07/25 00:57:05;;;;;;;69.03;62.63;;;;;;;;;;5101379;28;24530;-44
2022/07/25 00:59:30;;;;;;;69.63;63.10;;;;;;;;;;5086497;28;24456;-45
2022/07/25 01:01:55;;;;;;;70.53;64.18;;;;;;;;;;5094025;28;24506;-45
2022/07/25 01:04:20;;;;;;;71.47;64.78;;;;;;;;;;5094445;28;24588;-46
2022/07/25 01:06:45;;;;;;;76.68;69.57;;;;;;;;;;5090654;28;24534;-45
2022/07/25 01:09:11;;;;;;;77.60;70.40;;;;;;;;;;5087693;28;24985;-45
2022/07/25 01:11:36;;;;;;;77.30;70.07;;;;;;;;;;5099100;28;24417;-45
2022/07/25 01:14:01;;;;;;;80.55;72.88;;;;;;;;;;5096095;28;25033;-46
2022/07/25 01:16:26;;;;;;;81.37;73.97;;;;;;;;;;5095006;28;25030;-46
2022/07/25 01:18:52;;;;;;;84.97;77.28;;;;;;;;;;5104488;28;24421;-45
2022/07/25 01:21:17;;;;;;;88.37;80.27;;;;;;;;;;5099833;28;24490;-45
2022/07/25 01:23:42;;;;;;;90.25;81.95;;;;;;;;;;5086762;28;24487;-45
2022/07/25 01:26:07;;;;;;;93.77;85.07;;;;;;;;;;5087602;28;24482;-46
2022/07/25 01:28:32;;;;;;;101.37;92.07;;;;;;;;;;5085807;28;25223;-46
2022/07/25 01:30:57;;;;;;;104.10;94.60;;;;;;;;;;5097687;28;24418;-45
2022/07/25 01:33:22;;;;;;;109.43;99.13;;;;;;;;;;5094395;28;25019;-45
2022/07/25 01:35:48;;;;;;;105.38;95.40;;;;;;;;;;5094914;28;24421;-46
2022/07/25 01:38:13;;;;;;;110.87;100.70;;;;;;;;;;5092869;28;25087;-46
2022/07/25 01:40:39;;;;;;;108.57;98.17;;;;;;;;;;5093022;28;24422;-45
2022/07/25 01:43:05;;;;;;;109.95;100.05;;;;;;;;;;5099592;28;24474;-46
2022/07/25 01:45:30;;;;;;;109.33;99.63;;;;;;;;;;5094378;28;24434;-45
2022/07/25 01:47:55;;;;;;;117.78;106.80;;;;;;;;;;5091728;28;24572;-44
2022/07/25 01:50:20;;;;;;;115.73;104.93;;;;;;;;;;5088503;28;24514;-43
2022/07/25 01:52:45;;;;;;;121.80;110.50;;;;;;;;;;5093955;28;24438;-44
2022/07/25 01:55:11;;;;;;;118.13;106.83;;;;;;;;;;5103629;28;24456;-45
2022/07/25 01:57:36;;;;;;;123.37;112.03;;;;;;;;;;5095572;28;24425;-43
2022/07/25 02:00:03;;;;;;;118.20;107.03;;;;;;;;;;5102131;28;25259;-44
2022/07/25 02:02:28;;;;;;;120.40;109.20;;;;;;;;;;5089692;28;24426;-45
2022/07/25 02:04:53;;;;;;;126.00;114.77;;;;;;;;;;5104387;28;24506;-44
2022/07/25 02:07:18;;;;;;;127.40;115.60;;;;;;;;;;5091610;28;24468;-46
2022/07/25 02:09:44;;;;;;;116.13;105.50;;;;;;;;;;5105258;28;24467;-45
2022/07/25 02:12:09;;;;;;;122.38;111.30;;;;;;;;;;5092071;28;24422;-50
2022/07/25 02:14:34;;;;;;;110.73;100.53;;;;;;;;;;5097786;27;24428;-46
2022/07/25 02:16:59;;;;;;;113.82;103.00;;;;;;;;;;5108176;28;24478;-46
2022/07/25 02:19:24;;;;;;;111.97;101.83;;;;;;;;;;5094658;28;24504;-45
2022/07/25 02:21:50;;;;;;;114.10;103.37;;;;;;;;;;5091675;28;25022;-45
2022/07/25 02:24:15;;;;;;;115.50;104.82;;;;;;;;;;5085532;28;24486;-48
2022/07/25 02:26:40;;;;;;;115.13;104.73;;;;;;;;;;5094624;28;24430;-47
2022/07/25 02:29:05;;;;;;;115.43;104.83;;;;;;;;;;5092259;28;24469;-47
2022/07/25 02:31:31;;;;;;;113.17;102.97;;;;;;;;;;5091693;27;24454;-47
2022/07/25 02:33:56;;;;;;;116.60;105.90;;;;;;;;;;5088072;27;24517;-47
2022/07/25 02:36:21;;;;;;;116.53;105.73;;;;;;;;;;5105685;27;25079;-47
2022/07/25 02:38:46;;;;;;;116.47;105.70;;;;;;;;;;5091605;28;24429;-46
2022/07/25 02:41:11;;;;;;;118.73;108.00;;;;;;;;;;5102109;28;24979;-47
2022/07/25 02:43:36;;;;;;;119.93;108.70;;;;;;;;;;5088836;28;24520;-48
2022/07/25 02:46:02;;;;;;;119.57;108.73;;;;;;;;;;5095710;27;24426;-46
2022/07/25 02:48:27;;;;;;;117.80;107.20;;;;;;;;;;5105793;28;24465;-46
2022/07/25 02:50:52;;;;;;;126.38;115.00;;;;;;;;;;5097333;28;24469;-46
2022/07/25 02:53:17;;;;;;;118.20;107.10;;;;;;;;;;5091663;28;24474;-47
2022/07/25 02:55:42;;;;;;;125.70;114.68;;;;;;;;;;5091210;28;24452;-47
2022/07/25 02:58:08;;;;;;;116.40;105.80;;;;;;;;;;5087761;28;24434;-47
2022/07/25 03:00:33;;;;;;;127.03;115.63;;;;;;;;;;5089229;28;24772;-47
2022/07/25 03:02:58;;;;;;;115.03;104.20;;;;;;;;;;5087507;28;24443;-47
2022/07/25 03:05:23;;;;;;;114.97;104.25;;;;;;;;;;5096964;27;25533;-46
2022/07/25 03:07:49;;;;;;;117.13;106.63;;;;;;;;;;5089483;28;24524;-47
2022/07/25 03:10:14;;;;;;;119.77;109.17;;;;;;;;;;5094311;28;24493;-46
2022/07/25 03:12:40;;;;;;;118.05;107.05;;;;;;;;;;5085082;28;24417;-46
2022/07/25 03:15:05;;;;;;;111.97;101.57;;;;;;;;;;5095360;28;24457;-46
2022/07/25 03:17:31;;;;;;;110.50;100.30;;;;;;;;;;5092818;28;24461;-51
2022/07/25 03:19:56;;;;;;;109.50;99.37;;;;;;;;;;5098247;28;24983;-46
2022/07/25 03:22:21;;;;;;;108.63;98.73;;;;;;;;;;5089515;28;24426;-47
2022/07/25 03:24:46;;;;;;;106.80;96.90;;;;;;;;;;5102221;27;24422;-46
2022/07/25 03:27:12;;;;;;;103.10;93.35;;;;;;;;;;5085043;28;24534;-48
2022/07/25 03:29:37;;;;;;;109.90;99.50;;;;;;;;;;5090270;28;24509;-46
2022/07/25 03:32:03;;;;;;;98.65;89.60;;;;;;;;;;5090770;28;24975;-47
2022/07/25 03:34:28;;;;;;;104.97;95.40;;;;;;;;;;5102342;28;24505;-47
2022/07/25 03:36:53;;;;;;;98.10;89.10;;;;;;;;;;5094846;28;24855;-47
2022/07/25 03:39:20;;;;;;;102.22;93.22;;;;;;;;;;5103764;28;24501;-46
2022/07/25 03:41:45;;;;;;;94.10;85.70;;;;;;;;;;5098440;28;24911;-47
2022/07/25 03:44:10;;;;;;;96.83;87.53;;;;;;;;;;5091070;28;24999;-46
2022/07/25 03:46:35;;;;;;;91.47;82.77;;;;;;;;;;5094753;28;24595;-47
2022/07/25 03:49:01;;;;;;;99.03;90.22;;;;;;;;;;5098428;28;24486;-46
2022/07/25 03:51:26;;;;;;;92.60;83.93;;;;;;;;;;5093350;28;24417;-47
2022/07/25 03:54:07;;;;;;;95.63;86.83;;;;;;;;;;5095896;27;24457;-46
2022/07/25 03:56:37;;;;;;;92.93;84.32;;;;;;;;;;5092385;28;24428;-46
2022/07/25 03:59:02;;;;;;;93.78;85.15;;;;;;;;;;5087682;28;24404;-46
2022/07/25 04:01:28;;;;;;;96.85;87.93;;;;;;;;;;5087624;28;24521;-46
2022/07/25 04:03:53;;;;;;;85.90;78.05;;;;;;;;;;5094441;28;24429;-48
2022/07/25 04:06:18;;;;;;;106.13;96.43;;;;;;;;;;5096643;28;24467;-46
2022/07/25 04:08:43;;;;;;;98.47;89.37;;;;;;;;;;5096172;28;24406;-47
2022/07/25 04:11:08;;;;;;;101.07;91.97;;;;;;;;;;5088564;28;25037;-47
2022/07/25 04:13:34;;;;;;;96.93;88.20;;;;;;;;;;5094002;28;24421;-46
2022/07/25 04:15:59;;;;;;;101.78;92.35;;;;;;;;;;5092727;28;25044;-45
2022/07/25 04:18:24;;;;;;;102.47;93.07;;;;;;;;;;5099331;28;24437;-46
2022/07/25 04:20:49;;;;;;;94.60;86.00;;;;;;;;;;5092864;28;24831;-45
2022/07/25 04:23:14;;;;;;;98.93;90.18;;;;;;;;;;5099271;27;24948;-46
2022/07/25 04:25:39;;;;;;;94.35;86.25;;;;;;;;;;5094491;27;24422;-46
2022/07/25 04:28:04;;;;;;;84.68;77.18;;;;;;;;;;5091854;28;24449;-45
2022/07/25 04:30:30;;;;;;;91.18;82.97;;;;;;;;;;5093913;28;25018;-46
2022/07/25 04:32:55;;;;;;;89.72;82.13;;;;;;;;;;5093228;28;24422;-45
2022/07/25 04:35:20;;;;;;;90.03;82.47;;;;;;;;;;5099417;28;24475;-47
2022/07/25 04:37:45;;;;;;;87.50;79.60;;;;;;;;;;5094598;28;24850;-46
2022/07/25 04:40:11;;;;;;;88.68;80.68;;;;;;;;;;5093370;28;24497;-48
2022/07/25 04:42:36;;;;;;;84.80;77.53;;;;;;;;;;5089895;28;24552;-46
2022/07/25 04:45:01;;;;;;;78.30;71.50;;;;;;;;;;5095314;28;24508;-46
2022/07/25 04:47:26;;;;;;;75.63;69.03;;;;;;;;;;5089950;28;24440;-46
2022/07/25 04:49:51;;;;;;;74.53;67.80;;;;;;;;;;5097222;28;24487;-47
2022/07/25 04:52:16;;;;;;;68.80;62.80;;;;;;;;;;5093140;28;24467;-47
2022/07/25 04:54:41;;;;;;;64.55;58.72;;;;;;;;;;5090104;28;24425;-46
2022/07/25 04:57:07;;;;;;;59.85;54.65;;;;;;;;;;5086091;28;24430;-46
2022/07/25 04:59:32;;;;;;;56.60;51.53;;;;;;;;;;5093392;28;24430;-46
2022/07/25 05:01:57;;;;;;;56.08;51.38;;;;;;;;;;5085055;28;24868;-45
2022/07/25 05:04:22;;;;;;;51.30;46.90;;;;;;;;;;5090250;28;24475;-47
2022/07/25 05:06:47;;;;;;;50.57;46.17;;;;;;;;;;5102647;28;24562;-47
2022/07/25 05:09:12;;;;;;;51.47;47.00;;;;;;;;;;5096825;28;24598;-47
2022/07/25 05:11:38;;;;;;;46.25;42.25;;;;;;;;;;5103291;28;24432;-46
2022/07/25 05:14:03;;;;;;;45.00;41.20;;;;;;;;;;5097070;28;24815;-46
2022/07/25 05:16:28;;;;;;;44.58;40.70;;;;;;;;;;5110427;27;24417;-46
2022/07/25 05:18:53;;;;;;;44.93;41.13;;;;;;;;;;5101752;28;24432;-47
2022/07/25 05:21:18;;;;;;;41.17;37.78;;;;;;;;;;5106715;28;24463;-47
2022/07/25 05:23:44;;;;;;;41.70;38.28;;;;;;;;;;5104604;27;24453;-47
2022/07/25 05:26:09;;;;;;;41.40;37.80;;;;;;;;;;5090344;28;25018;-47
2022/07/25 05:28:34;;;;;;;42.47;38.88;;;;;;;;;;5105163;27;24425;-45
2022/07/25 05:30:59;;;;;;;38.23;35.13;;;;;;;;;;5099432;27;24429;-44
2022/07/25 05:33:25;;;;;;;40.63;37.10;;;;;;;;;;5098001;28;24418;-46
2022/07/25 05:35:50;;;;;;;41.13;37.53;;;;;;;;;;5096654;27;24418;-45
2022/07/25 05:38:15;;;;;;;40.47;36.97;;;;;;;;;;5106838;27;24459;-46
2022/07/25 05:40:40;;;;;;;37.67;34.53;;;;;;;;;;5101297;27;24414;-46
2022/07/25 05:43:05;;;;;;;40.92;37.53;;;;;;;;;;5094968;28;24979;-47
2022/07/25 05:45:31;;;;;;;40.28;36.85;;;;;;;;;;5100484;28;24856;-47
2022/07/25 05:47:56;;;;;;;37.35;34.25;;;;;;;;;;5100121;27;24441;-46
2022/07/25 05:50:21;;;;;;;39.97;36.47;;;;;;;;;;5099238;28;25077;-45
2022/07/25 05:52:46;;;;;;;37.90;34.75;;;;;;;;;;5087774;27;24712;-46
2022/07/25 05:55:12;;;;;;;39.58;36.28;;;;;;;;;;5098734;28;24480;-46
2022/07/25 05:57:37;;;;;;;39.33;35.85;;;;;;;;;;5094120;27;24472;-46
2022/07/25 06:00:04;;;;;;;35.67;32.87;;;;;;;;;;5091105;27;24837;-46
2022/07/25 06:02:29;;;;;;;33.67;31.15;;;;;;;;;;5093022;28;25015;-45
2022/07/25 06:04:54;;;;;;;37.30;34.20;;;;;;;;;;5091740;28;25071;-48
2022/07/25 06:07:20;;;;;;;34.63;31.73;;;;;;;;;;5094685;28;24432;-46
2022/07/25 06:09:45;;;;;;;34.30;31.48;;;;;;;;;;5100060;28;24425;-46
2022/07/25 06:12:10;;;;;;;32.60;29.90;;;;;;;;;;5102969;28;25011;-47
2022/07/25 06:14:35;;;;;;;33.43;30.63;;;;;;;;;;5087945;28;24446;-45
2022/07/25 06:17:00;;;;;;;35.33;32.43;;;;;;;;;;5093929;27;25036;-45
2022/07/25 06:19:25;;;;;;;33.93;31.10;;;;;;;;;;5093086;28;24430;-46
2022/07/25 06:21:51;;;;;;;34.00;31.10;;;;;;;;;;5099480;28;24508;-47
2022/07/25 06:24:16;;;;;;;34.40;31.70;;;;;;;;;;5091686;28;24889;-46
2022/07/25 06:26:41;;;;;;;32.90;30.30;;;;;;;;;;5088373;28;25094;-46
2022/07/25 06:29:06;;;;;;;34.83;31.80;;;;;;;;;;5098654;28;25000;-48
2022/07/25 06:31:31;;;;;;;33.40;30.70;;;;;;;;;;5090413;28;24414;-46
2022/07/25 06:33:57;;;;;;;32.53;29.73;;;;;;;;;;5096957;28;24520;-46
2022/07/25 06:36:22;;;;;;;31.17;28.38;;;;;;;;;;5087625;27;24852;-45
2022/07/25 06:38:48;;;;;;;30.30;27.50;;;;;;;;;;5098084;28;24429;-46
2022/07/25 06:41:14;;;;;;;30.67;28.10;;;;;;;;;;5092985;28;25133;-46
2022/07/25 06:43:40;;;;;;;29.50;26.90;;;;;;;;;;5089639;28;24540;-46
2022/07/25 06:46:05;;;;;;;29.70;27.00;;;;;;;;;;5091067;28;24496;-47
2022/07/25 06:48:30;;;;;;;27.17;24.87;;;;;;;;;;5097126;28;25084;-46
2022/07/25 06:50:55;;;;;;;25.13;23.13;;;;;;;;;;5103864;28;24518;-45
2022/07/25 06:53:21;;;;;;;26.70;24.00;;;;;;;;;;5098713;28;24426;-45
2022/07/25 06:55:46;;;;;;;24.73;22.52;;;;;;;;;;5089562;28;24444;-45
2022/07/25 06:58:11;;;;;;;21.57;19.87;;;;;;;;;;5094087;28;24446;-46
2022/07/25 07:00:36;;;;;;;20.85;19.05;;;;;;;;;;5090396;28;24461;-45
2022/07/25 07:03:02;;;;;;;20.73;18.97;;;;;;;;;;5085441;28;24445;-45
2022/07/25 07:05:28;;;;;;;19.13;17.42;;;;;;;;;;5087572;27;24487;-45
2022/07/25 07:07:54;;;;;;;17.50;16.00;;;;;;;;;;5094326;28;24441;-48
2022/07/25 07:10:20;;;;;;;16.23;14.80;;;;;;;;;;5095566;28;24421;-46
2022/07/25 07:12:46;;;;;;;16.88;15.27;;;;;;;;;;5096977;28;24430;-46
2022/07/25 07:15:11;;;;;;;15.30;14.00;;;;;;;;;;5098539;28;25223;-46
2022/07/25 07:17:36;;;;;;;14.90;13.60;;;;;;;;;;5092697;28;24433;-46
2022/07/25 07:20:03;;;;;;;14.20;13.10;;;;;;;;;;5086608;28;25310;-46
2022/07/25 07:22:28;;;;;;;13.32;12.10;;;;;;;;;;5091688;28;25011;-45
2022/07/25 07:24:53;;;;;;;12.77;11.87;;;;;;;;;;5089287;28;24444;-46
2022/07/25 07:27:18;;;;;;;13.30;12.10;;;;;;;;;;5092209;28;25119;-46
2022/07/25 07:29:43;;;;;;;12.23;11.23;;;;;;;;;;5092347;28;24472;-46
2022/07/25 07:32:08;;;;;;;13.27;12.27;;;;;;;;;;5084900;28;24433;-46
2022/07/25 07:34:34;;;;;;;12.23;11.23;;;;;;;;;;5085165;28;26024;-46
2022/07/25 07:36:59;;;;;;;11.02;10.02;;;;;;;;;;5099190;27;24466;-46
2022/07/25 07:39:24;;;;;;;9.30;8.40;;;;;;;;;;5093446;28;24459;-46
2022/07/25 07:41:49;;;;;;;16.63;15.27;;;;;;;;;;5097193;28;24437;-46
2022/07/25 07:44:14;;;;;;;12.45;11.45;;;;;;;;;;5086334;28;24418;-46
2022/07/25 07:46:40;;;;;;;7.80;7.30;;;;;;;;;;5088161;28;24461;-46
2022/07/25 07:49:05;;;;;;;7.70;7.10;;;;;;;;;;5105393;27;24977;-47
2022/07/25 07:51:30;;;;;;;7.50;6.90;;;;;;;;;;5097429;27;24417;-46
2022/07/25 07:56:40;;;;;;;8.00;7.32;;;;;;;;;;5092672;28;24424;-45
2022/07/25 07:59:05;;;;;;;7.57;7.07;;;;;;;;;;5101736;28;24520;-46
2022/07/25 08:01:31;;;;;;;7.50;7.00;;;;;;;;;;5102418;28;25105;-46
2022/07/25 08:03:56;;;;;;;8.67;7.97;;;;;;;;;;5097414;28;24581;-45
2022/07/25 08:06:21;;;;;;;7.60;7.07;;;;;;;;;;5099400;28;24505;-45
2022/07/25 08:08:46;;;;;;;7.65;7.15;;;;;;;;;;5098781;28;24964;-43
2022/07/25 08:11:11;;;;;;;7.05;6.45;;;;;;;;;;5093156;28;24991;-47
2022/07/25 08:13:37;;;;;;;7.80;7.20;;;;;;;;;;5105025;28;24426;-45
2022/07/25 08:16:02;;;;;;;8.13;7.53;;;;;;;;;;5103934;28;24520;-45
2022/07/25 08:18:31;;;;;;;7.40;6.80;;;;;;;;;;5096283;28;24433;-45
2022/07/25 08:20:57;;;;;;;8.60;7.90;;;;;;;;;;5091973;28;24418;-46
2022/07/25 08:23:24;;;;;;;8.40;7.70;;;;;;;;;;5085815;28;24477;-46
2022/07/25 08:25:49;;;;;;;8.45;7.85;;;;;;;;;;5086233;28;24430;-46
2022/07/25 08:28:14;;;;;;;8.15;7.55;;;;;;;;;;5092598;28;24503;-46
2022/07/25 08:30:40;;;;;;;8.23;7.63;;;;;;;;;;5101143;28;25317;-46
2022/07/25 08:33:06;;;;;;;8.20;7.50;;;;;;;;;;5093429;28;24417;-46
2022/07/25 08:35:33;;;;;;;8.10;7.50;;;;;;;;;;5097801;28;24426;-47
2022/07/25 08:37:58;;;;;;;8.38;7.78;;;;;;;;;;5085737;28;24553;-46
2022/07/25 08:40:24;;;;;;;8.57;7.45;;;;;;;;;;5086632;28;24533;-47
2022/07/25 08:42:50;;;;;;;8.25;7.65;;;;;;;;;;5085894;28;25033;-46
2022/07/25 08:45:16;;;;;;;8.53;7.83;;;;;;;;;;5087567;28;24510;-46
2022/07/25 08:47:42;;;;;;;7.90;7.30;;;;;;;;;;5091642;28;24492;-44
2022/07/25 08:50:09;;;;;;;8.45;7.65;;;;;;;;;;5086097;28;25069;-46
2022/07/25 08:52:35;;;;;;;8.50;7.90;;;;;;;;;;5085798;28;24428;-45
2022/07/25 08:55:02;;;;;;;8.20;7.50;;;;;;;;;;5085529;28;24517;-44
2022/07/25 08:57:27;;;;;;;8.90;8.18;;;;;;;;;;5090496;28;24422;-46
2022/07/25 08:59:55;;;;;;;8.30;7.70;;;;;;;;;;5097359;28;25014;-46
2022/07/25 09:02:20;;;;;;;8.30;7.70;;;;;;;;;;5098611;28;24426;-46
2022/07/25 09:04:45;;;;;;;8.32;7.78;;;;;;;;;;5094737;28;25066;-46
2022/07/25 09:07:10;;;;;;;8.07;7.47;;;;;;;;;;5093101;27;24490;-45
2022/07/25 09:09:37;;;;;;;8.70;8.10;;;;;;;;;;5089533;28;24497;-45
2022/07/25 09:12:02;;;;;;;8.45;7.90;;;;;;;;;;5098916;28;24421;-45
2022/07/25 09:14:30;;;;;;;8.67;7.97;;;;;;;;;;5095454;28;24789;-46
2022/07/25 09:16:56;;;;;;;9.10;8.40;;;;;;;;;;5095856;28;24430;-44
2022/07/25 09:19:23;;;;;;;7.70;7.10;;;;;;;;;;5097179;28;25037;-46
2022/07/25 09:21:58;;;;;;;8.40;7.80;;;;;;;;;;5094907;28;24429;-46
2022/07/25 09:24:24;;;;;;;8.10;7.60;;;;;;;;;;5091977;28;24508;-45
2022/07/25 09:26:50;;;;;;;8.53;7.90;;;;;;;;;;5088900;28;24537;-46
2022/07/25 09:29:17;;;;;;;8.85;8.15;;;;;;;;;;5099269;27;25057;-46
2022/07/25 09:31:42;;;;;;;8.05;7.45;;;;;;;;;;5098282;28;24429;-45
2022/07/25 09:34:08;;;;;;;9.02;8.40;;;;;;;;;;5092646;28;25007;-45
2022/07/25 09:36:34;;;;;;;7.80;7.20;;;;;;;;;;5095622;28;24426;-45
2022/07/25 09:39:00;;;;;;;8.23;7.73;;;;;;;;;;5089526;28;24482;-47
2022/07/25 09:41:32;;;;;;;8.40;7.80;;;;;;;;;;5100184;27;24433;-46
2022/07/25 09:43:57;;;;;;;7.40;6.90;;;;;;;;;;5088263;28;24939;-46
2022/07/25 09:46:28;;;;;;;8.23;7.63;;;;;;;;;;5090991;28;25046;-45
2022/07/25 09:48:55;;;;;;;7.72;7.22;;;;;;;;;;5107684;28;24766;-45
2022/07/25 09:51:22;;;;;;;8.25;7.65;;;;;;;;;;5096591;27;24449;-45
2022/07/25 09:53:47;;;;;;;7.60;7.00;;;;;;;;;;5104568;28;25106;-45
2022/07/25 09:56:12;;;;;;;7.80;7.30;;;;;;;;;;5098537;27;24519;-46
2022/07/25 09:58:37;;;;;;;7.60;7.10;;;;;;;;;;5100074;28;24499;-45
2022/07/25 10:01:04;;;;;;;7.60;7.10;;;;;;;;;;5090483;28;24418;-46
2022/07/25 10:03:48;;;;;;;7.90;7.40;;;;;;;;;;5088471;28;24507;-46
2022/07/25 10:06:19;;;;;;;8.35;7.75;;;;;;;;;;5096516;28;24454;-45
2022/07/25 10:08:44;;;;;;;8.02;7.43;;;;;;;;;;5093069;28;24410;-46
2022/07/25 10:11:23;;;;;;;8.20;7.60;;;;;;;;;;5102344;28;24479;-46
2022/07/25 10:13:49;;;;;;;8.30;7.70;;;;;;;;;;5094658;27;24448;-50
2022/07/25 10:16:15;;;;;;;7.83;7.23;;;;;;;;;;5095254;28;24429;-46
2022/07/25 10:18:46;;;;;;;7.45;6.95;;;;;;;;;;5116382;27;24426;-46
2022/07/25 10:21:11;;;;;;;8.80;8.20;;;;;;;;;;5107030;27;24854;-46
2022/07/25 10:23:36;;;;;;;7.10;6.60;;;;;;;;;;5105392;28;24524;-46
2022/07/25 10:26:09;;;;;;;7.87;7.37;;;;;;;;;;5094947;28;24414;-45
2022/07/25 10:28:55;;;;;;;7.88;7.28;;;;;;;;;;5099327;27;24518;-45
2022/07/25 10:31:26;;;;;;;7.90;7.40;;;;;;;;;;5107425;27;24402;-44
2022/07/25 10:33:55;;;;;;;8.40;7.80;;;;;;;;;;5091919;28;24521;-43
2022/07/25 10:36:21;;;;;;;8.30;7.70;;;;;;;;;;5108235;28;24477;-45
2022/07/25 10:38:49;;;;;;;7.97;7.37;;;;;;;;;;5088434;28;24429;-46
2022/07/25 10:41:14;;;;;;;7.72;7.20;;;;;;;;;;5100974;28;24498;-46
2022/07/25 10:43:42;;;;;;;7.87;7.37;;;;;;;;;;5103898;28;24471;-46
2022/07/25 10:46:12;;;;;;;8.30;7.60;;;;;;;;;;5109198;27;24402;-46
2022/07/25 10:48:38;;;;;;;8.23;7.63;;;;;;;;;;5090380;28;24426;-46
2022/07/25 10:51:05;;;;;;;8.03;7.43;;;;;;;;;;5088472;28;24434;-45
2022/07/25 10:53:35;;;;;;;7.47;6.95;;;;;;;;;;5099022;28;24440;-45
2022/07/25 10:56:04;;;;;;;8.13;7.53;;;;;;;;;;5100325;28;24948;-46
2022/07/25 10:58:42;;;;;;;7.70;7.10;;;;;;;;;;5100732;28;24799;-45
2022/07/25 11:01:07;;;;;;;8.20;7.60;;;;;;;;;;5108419;28;24398;-45
2022/07/25 11:03:32;;;;;;;8.20;7.60;;;;;;;;;;5101430;27;24421;-45
2022/07/25 11:05:58;;;;;;;8.83;7.93;;;;;;;;;;5100338;27;24421;-46
2022/07/25 11:08:30;;;;;;;8.20;7.60;;;;;;;;;;5116411;27;24424;-45
2022/07/25 11:10:55;;;;;;;8.07;7.47;;;;;;;;;;5101583;27;24856;-45
2022/07/25 11:13:20;;;;;;;7.20;6.70;;;;;;;;;;5101149;28;24445;-45
2022/07/25 11:15:45;;;;;;;7.80;7.30;;;;;;;;;;5105934;28;24405;-45
2022/07/25 11:18:10;;;;;;;8.60;7.90;;;;;;;;;;5099009;28;24784;-46
2022/07/25 11:20:36;;;;;;;7.67;7.07;;;;;;;;;;5110619;27;24425;-45
2022/07/25 11:23:01;;;;;;;8.20;7.40;;;;;;;;;;5098511;27;24414;-46
2022/07/25 11:25:26;;;;;;;8.13;7.53;;;;;;;;;;5096386;27;24522;-45
2022/07/25 11:27:56;;;;;;;8.13;7.53;;;;;;;;;;5100538;27;24453;-46
2022/07/25 11:30:21;;;;;;;8.20;7.50;;;;;;;;;;5105591;28;24426;-46
2022/07/25 11:32:54;;;;;;;8.40;7.70;;;;;;;;;;5104478;27;24788;-46
2022/07/25 11:35:20;;;;;;;8.10;7.50;;;;;;;;;;5101149;28;24428;-46
2022/07/25 11:37:48;;;;;;;7.60;7.03;;;;;;;;;;5103988;27;24521;-46
2022/07/25 11:40:17;;;;;;;7.95;7.35;;;;;;;;;;5089276;28;24502;-45
2022/07/25 11:42:42;;;;;;;8.23;7.53;;;;;;;;;;5103955;27;24426;-46
2022/07/25 11:45:18;;;;;;;7.13;6.57;;;;;;;;;;5099913;28;24433;-46
2022/07/25 11:47:43;;;;;;;6.80;6.30;;;;;;;;;;5110004;27;24459;-45
2022/07/25 11:50:13;;;;;;;7.00;6.40;;;;;;;;;;5108454;27;24519;-45
2022/07/25 11:52:39;;;;;;;7.43;6.82;;;;;;;;;;5109532;27;24505;-46
2022/07/25 11:55:07;;;;;;;7.50;6.90;;;;;;;;;;5103257;27;24429;-47
2022/07/25 11:57:33;;;;;;;7.22;6.72;;;;;;;;;;5106706;27;24523;-46
2022/07/25 11:59:59;;;;;;;8.00;7.30;;;;;;;;;;5101268;27;24421;-47
2022/07/25 12:02:26;;;;;;;8.50;7.80;;;;;;;;;;5105851;28;24498;-47
2022/07/25 12:04:52;;;;;;;8.10;7.43;;;;;;;;;;5100344;27;24895;-46
2022/07/25 12:07:18;;;;;;;7.87;7.17;;;;;;;;;;5094913;27;24444;-46
2022/07/25 12:09:53;;;;;;;7.80;7.10;;;;;;;;;;5116692;27;24421;-46
2022/07/25 12:12:18;;;;;;;7.40;6.90;;;;;;;;;;5096349;28;24800;-46
2022/07/25 12:14:43;;;;;;;6.82;6.43;;;;;;;;;;5092138;28;24426;-46
2022/07/25 12:17:09;;;;;;;7.38;6.88;;;;;;;;;;5093780;28;24515;-46
2022/07/25 12:19:34;;;;;;;7.80;7.30;;;;;;;;;;5093518;28;24479;-47
2022/07/25 12:21:59;;;;;;;7.70;7.00;;;;;;;;;;5095443;28;24471;-46
2022/07/25 12:24:24;;;;;;;7.18;6.68;;;;;;;;;;5086811;28;24941;-46
2022/07/25 12:26:49;;;;;;;6.72;6.30;;;;;;;;;;5090782;28;24568;-46
2022/07/25 12:29:14;;;;;;;7.00;6.50;;;;;;;;;;5104161;28;24378;-46
2022/07/25 12:31:40;;;;;;;7.10;6.70;;;;;;;;;;5092466;28;24461;-46
2022/07/25 12:34:05;;;;;;;6.90;6.40;;;;;;;;;;5083595;28;24433;-45
2022/07/25 12:36:30;;;;;;;7.25;6.75;;;;;;;;;;5087037;28;24833;-46
2022/07/25 12:38:55;;;;;;;6.70;6.27;;;;;;;;;;5103844;28;24451;-46
2022/07/25 12:41:22;;;;;;;6.90;6.50;;;;;;;;;;5094232;28;25372;-46
2022/07/25 12:43:47;;;;;;;7.00;6.50;;;;;;;;;;5100358;28;25382;-46
2022/07/25 12:46:12;;;;;;;7.20;6.70;;;;;;;;;;5101493;28;24447;-47
2022/07/25 12:48:38;;;;;;;6.72;6.22;;;;;;;;;;5094873;28;24942;-47
2022/07/25 12:51:03;;;;;;;6.60;6.10;;;;;;;;;;5100120;28;24745;-46
2022/07/25 12:53:28;;;;;;;7.00;6.50;;;;;;;;;;5089721;28;24421;-46
2022/07/25 12:55:53;;;;;;;7.28;6.78;;;;;;;;;;5089784;28;24426;-46
2022/07/25 12:58:19;;;;;;;7.30;6.80;;;;;;;;;;5096995;28;24796;-46
2022/07/25 13:00:45;;;;;;;7.32;6.82;;;;;;;;;;5102776;28;24445;-46
2022/07/25 13:03:11;;;;;;;6.77;6.27;;;;;;;;;;5093054;28;24441;-45
2022/07/25 13:05:38;;;;;;;7.40;6.90;;;;;;;;;;5093974;28;24429;-45
2022/07/25 13:08:04;;;;;;;7.50;6.90;;;;;;;;;;5083136;28;24447;-46
2022/07/25 13:10:30;;;;;;;7.68;7.18;;;;;;;;;;5094164;27;24521;-46
2022/07/25 13:12:55;;;;;;;7.07;6.57;;;;;;;;;;5095558;28;24936;-47
2022/07/25 13:15:22;;;;;;;7.20;6.78;;;;;;;;;;5101419;28;24466;-46
2022/07/25 13:17:47;;;;;;;7.28;6.78;;;;;;;;;;5118550;28;24883;-47
2022/07/25 13:20:12;;;;;;;7.80;7.20;;;;;;;;;;5099605;28;24548;-47
2022/07/25 13:22:37;;;;;;;7.50;7.00;;;;;;;;;;5110329;28;24444;-47
2022/07/25 13:25:02;;;;;;;8.10;7.30;;;;;;;;;;5115838;27;24490;-47
2022/07/25 13:27:28;;;;;;;7.85;7.20;;;;;;;;;;5100331;28;24520;-46
2022/07/25 13:29:53;;;;;;;7.63;7.13;;;;;;;;;;5108585;28;24507;-46
2022/07/25 13:32:18;;;;;;;7.47;6.97;;;;;;;;;;5099037;27;24437;-45
2022/07/25 13:34:43;;;;;;;7.78;7.28;;;;;;;;;;5099421;27;24543;-46
2022/07/25 13:37:09;;;;;;;7.30;6.80;;;;;;;;;;5091368;28;24475;-46
2022/07/25 13:39:34;;;;;;;7.20;6.70;;;;;;;;;;5103962;28;24478;-45
2022/07/25 13:41:59;;;;;;;7.63;7.10;;;;;;;;;;5096028;28;24437;-46
2022/07/25 13:44:24;;;;;;;7.83;7.30;;;;;;;;;;5102348;27;24440;-46
2022/07/25 13:46:49;;;;;;;7.70;7.20;;;;;;;;;;5101837;27;24484;-46
2022/07/25 13:49:18;;;;;;;7.30;6.90;;;;;;;;;;5107511;27;25029;-47
2022/07/25 13:51:44;;;;;;;8.00;7.40;;;;;;;;;;5106656;27;24418;-46
2022/07/25 13:54:09;;;;;;;7.57;6.97;;;;;;;;;;5105676;28;24426;-46
2022/07/25 13:56:34;;;;;;;8.00;7.40;;;;;;;;;;5097855;28;24732;-46
2022/07/25 13:59:01;;;;;;;7.50;7.00;;;;;;;;;;5089592;28;24430;-46
2022/07/25 14:01:27;;;;;;;6.90;6.50;;;;;;;;;;5090005;28;24429;-46
2022/07/25 14:03:52;;;;;;;7.40;6.80;;;;;;;;;;5093923;28;24448;-46
2022/07/25 14:06:18;;;;;;;7.90;7.20;;;;;;;;;;5101317;28;24434;-46
2022/07/25 14:08:43;;;;;;;8.00;7.43;;;;;;;;;;5109523;28;25034;-45
2022/07/25 14:11:08;;;;;;;7.67;7.07;;;;;;;;;;5098262;28;24426;-45
2022/07/25 14:13:34;;;;;;;7.50;7.00;;;;;;;;;;5092691;28;24474;-46
2022/07/25 14:16:00;;;;;;;7.28;6.78;;;;;;;;;;5105565;28;24463;-46
2022/07/25 14:18:25;;;;;;;7.37;6.87;;;;;;;;;;5109328;28;24973;-46
2022/07/25 14:20:50;;;;;;;7.10;6.60;;;;;;;;;;5096888;28;24513;-46